sensor_id;sensor_type;location;lat;lon;timestamp;pressure;altitude;pressure_sealevel;temperature;humidity
71105;BME280;58760;48.716;8.962;2024-03-08T00:01:06;96423.38;;;2.88;100.00
71105;BME280;58760;48.716;8.962;2024-03-08T00:03:32;96420.41;;;2.92;100.00
71105;BME280;58760;48.716;8.962;2024-03-08T00:05:59;96410.66;;;2.83;100.00
71105;BME280;58760;48.716;8.962;2024-03-08T00:08:24;96405.25;;;2.75;100.00
71105;BME280;58760;48.716;8.962;2024-03-08T00:10:50;96405.03;;;2.67;100.00
71105;BME280;58760;48.716;8.962;2024-03-08T00:13:16;96411.31;;;2.55;100.00
71105;BME280;58760;48.716;8.962;2024-03-08T00:15:41;96404.97;;;2.37;100.00
71105;BME280;58760;48.716;8.962;2024-03-08T00:18:07;96407.59;;;2.57;100.00
71105;BME280;58760;48.716;8.962;2024-03-08T00:20:33;96408.44;;;2.58;100.00
71105;BME280;58760;48.716;8.962;2024-03-08T00:22:58;96410.63;;;2.53;100.00
71105;BME280;58760;48.716;8.962;2024-03-08T00:25:24;96406.28;;;2.63;100.00
71105;BME280;58760;48.716;8.962;2024-03-08T00:27:50;96399.94;;;2.45;100.00
71105;BME280;58760;48.716;8.962;2024-03-08T00:30:15;96398.34;;;2.53;100.00
71105;BME280;58760;48.716;8.962;2024-03-08T00:32:43;96397.75;;;2.29;100.00
71105;BME280;58760;48.716;8.962;2024-03-08T00:35:10;96401.97;;;2.41;100.00
71105;BME280;58760;48.716;8.962;2024-03-08T00:37:37;96397.19;;;2.46;100.00
71105;BME280;58760;48.716;8.962;2024-03-08T00:40:03;96391.50;;;2.41;100.00
71105;BME280;58760;48.716;8.962;2024-03-08T00:42:29;96381.53;;;2.35;100.00
71105;BME280;58760;48.716;8.962;2024-03-08T00:44:55;96389.31;;;2.26;100.00
71105;BME280;58760;48.716;8.962;2024-03-08T00:47:20;96390.97;;;2.27;100.00
71105;BME280;58760;48.716;8.962;2024-03-08T00:49:46;96384.53;;;2.31;100.00
71105;BME280;58760;48.716;8.962;2024-03-08T00:52:11;96380.06;;;2.42;100.00
71105;BME280;58760;48.716;8.962;2024-03-08T00:54:37;96375.59;;;2.33;100.00
71105;BME280;58760;48.716;8.962;2024-03-08T00:57:03;96373.50;;;2.27;100.00
71105;BME280;58760;48.716;8.962;2024-03-08T00:59:30;96372.91;;;2.24;100.00
71105;BME280;58760;48.716;8.962;2024-03-08T01:01:58;96365.81;;;2.15;100.00
71105;BME280;58760;48.716;8.962;2024-03-08T01:04:25;96363.47;;;2.32;100.00
71105;BME280;58760;48.716;8.962;2024-03-08T01:06:57;96354.97;;;2.40;100.00
71105;BME280;58760;48.716;8.962;2024-03-08T01:09:28;96355.34;;;2.15;100.00
71105;BME280;58760;48.716;8.962;2024-03-08T01:11:54;96360.00;;;2.32;100.00
71105;BME280;58760;48.716;8.962;2024-03-08T01:14:21;96358.59;;;2.28;100.00
71105;BME280;58760;48.716;8.962;2024-03-08T01:16:51;96349.97;;;2.16;100.00
71105;BME280;58760;48.716;8.962;2024-03-08T01:19:16;96348.69;;;2.10;100.00
71105;BME280;58760;48.716;8.962;2024-03-08T01:21:43;96353.63;;;1.93;100.00
71105;BME280;58760;48.716;8.962;2024-03-08T01:24:08;96348.53;;;1.91;100.00
71105;BME280;58760;48.716;8.962;2024-03-08T01:26:34;96343.47;;;2.10;100.00
71105;BME280;58760;48.716;8.962;2024-03-08T01:29:03;96339.81;;;2.23;100.00
71105;BME280;58760;48.716;8.962;2024-03-08T01:31:31;96338.22;;;2.10;100.00
71105;BME280;58760;48.716;8.962;2024-03-08T01:33:58;96329.28;;;2.13;100.00
71105;BME280;58760;48.716;8.962;2024-03-08T01:36:24;96335.63;;;2.10;100.00
71105;BME280;58760;48.716;8.962;2024-03-08T01:38:52;96328.63;;;2.00;100.00
71105;BME280;58760;48.716;8.962;2024-03-08T01:41:18;96320.09;;;1.98;100.00
71105;BME280;58760;48.716;8.962;2024-03-08T01:43:45;96304.91;;;2.13;100.00
71105;BME280;58760;48.716;8.962;2024-03-08T01:46:13;96308.78;;;1.97;100.00
71105;BME280;58760;48.716;8.962;2024-03-08T01:48:42;96313.88;;;1.78;100.00
71105;BME280;58760;48.716;8.962;2024-03-08T01:51:08;96316.41;;;1.69;100.00
71105;BME280;58760;48.716;8.962;2024-03-08T01:53:35;96313.44;;;1.62;100.00
71105;BME280;58760;48.716;8.962;2024-03-08T01:56:01;96308.94;;;1.53;100.00
71105;BME280;58760;48.716;8.962;2024-03-08T01:58:29;96310.84;;;1.62;100.00
71105;BME280;58760;48.716;8.962;2024-03-08T02:00:56;96303.91;;;1.72;100.00
71105;BME280;58760;48.716;8.962;2024-03-08T02:03:22;96300.63;;;1.59;100.00
71105;BME280;58760;48.716;8.962;2024-03-08T02:05:48;96302.00;;;1.63;100.00
71105;BME280;58760;48.716;8.962;2024-03-08T02:08:14;96296.00;;;1.51;100.00
71105;BME280;58760;48.716;8.962;2024-03-08T02:10:41;96293.41;;;1.40;100.00
71105;BME280;58760;48.716;8.962;2024-03-08T02:13:10;96286.13;;;1.55;100.00
71105;BME280;58760;48.716;8.962;2024-03-08T02:15:56;96288.03;;;1.53;100.00
71105;BME280;58760;48.716;8.962;2024-03-08T02:18:22;96277.13;;;1.48;100.00
71105;BME280;58760;48.716;8.962;2024-03-08T02:23:18;96278.38;;;1.65;100.00
71105;BME280;58760;48.716;8.962;2024-03-08T02:25:45;96269.25;;;1.59;100.00
71105;BME280;58760;48.716;8.962;2024-03-08T02:28:11;96260.31;;;1.62;100.00
71105;BME280;58760;48.716;8.962;2024-03-08T02:30:37;96262.34;;;1.58;100.00
71105;BME280;58760;48.716;8.962;2024-03-08T02:33:07;96253.69;;;1.46;100.00
71105;BME280;58760;48.716;8.962;2024-03-08T02:35:34;96262.88;;;1.41;100.00
71105;BME280;58760;48.716;8.962;2024-03-08T02:38:01;96248.22;;;1.18;100.00
71105;BME280;58760;48.716;8.962;2024-03-08T02:40:26;96253.78;;;1.24;100.00
71105;BME280;58760;48.716;8.962;2024-03-08T02:42:52;96249.44;;;1.45;100.00
71105;BME280;58760;48.716;8.962;2024-03-08T02:45:18;96247.97;;;1.21;100.00
71105;BME280;58760;48.716;8.962;2024-03-08T02:47:43;96242.53;;;1.13;100.00
71105;BME280;58760;48.716;8.962;2024-03-08T02:50:09;96245.59;;;1.18;100.00
71105;BME280;58760;48.716;8.962;2024-03-08T02:52:35;96243.78;;;1.29;100.00
71105;BME280;58760;48.716;8.962;2024-03-08T02:55:03;96243.31;;;1.24;100.00
71105;BME280;58760;48.716;8.962;2024-03-08T02:57:31;96242.72;;;1.21;100.00
71105;BME280;58760;48.716;8.962;2024-03-08T02:59:57;96237.94;;;1.37;100.00
71105;BME280;58760;48.716;8.962;2024-03-08T03:02:25;96237.41;;;1.11;100.00
71105;BME280;58760;48.716;8.962;2024-03-08T03:04:52;96243.72;;;1.09;100.00
71105;BME280;58760;48.716;8.962;2024-03-08T03:07:17;96246.44;;;1.18;100.00
71105;BME280;58760;48.716;8.962;2024-03-08T03:09:43;96241.09;;;1.20;100.00
71105;BME280;58760;48.716;8.962;2024-03-08T03:12:11;96242.34;;;0.93;100.00
71105;BME280;58760;48.716;8.962;2024-03-08T03:14:40;96232.88;;;0.81;100.00
71105;BME280;58760;48.716;8.962;2024-03-08T03:17:05;96226.22;;;0.66;100.00
71105;BME280;58760;48.716;8.962;2024-03-08T03:19:31;96232.47;;;0.86;100.00
71105;BME280;58760;48.716;8.962;2024-03-08T03:21:57;96225.69;;;1.05;100.00
71105;BME280;58760;48.716;8.962;2024-03-08T03:24:22;96233.13;;;1.21;100.00
71105;BME280;58760;48.716;8.962;2024-03-08T03:26:49;96217.41;;;0.89;100.00
71105;BME280;58760;48.716;8.962;2024-03-08T03:29:15;96219.53;;;0.95;100.00
71105;BME280;58760;48.716;8.962;2024-03-08T03:31:42;96210.50;;;0.88;100.00
71105;BME280;58760;48.716;8.962;2024-03-08T03:34:12;96216.47;;;0.79;100.00
71105;BME280;58760;48.716;8.962;2024-03-08T03:36:38;96213.66;;;0.71;100.00
71105;BME280;58760;48.716;8.962;2024-03-08T03:39:08;96218.88;;;0.71;100.00
71105;BME280;58760;48.716;8.962;2024-03-08T03:41:38;96221.81;;;0.67;100.00
71105;BME280;58760;48.716;8.962;2024-03-08T03:44:08;96216.34;;;0.59;100.00
71105;BME280;58760;48.716;8.962;2024-03-08T03:46:34;96215.91;;;0.65;100.00
71105;BME280;58760;48.716;8.962;2024-03-08T03:49:01;96218.53;;;0.65;100.00
71105;BME280;58760;48.716;8.962;2024-03-08T03:51:26;96214.09;;;0.65;100.00
71105;BME280;58760;48.716;8.962;2024-03-08T03:53:52;96212.91;;;0.69;100.00
71105;BME280;58760;48.716;8.962;2024-03-08T03:56:18;96213.84;;;0.79;100.00
71105;BME280;58760;48.716;8.962;2024-03-08T03:58:44;96203.56;;;0.78;100.00
71105;BME280;58760;48.716;8.962;2024-03-08T04:01:10;96206.16;;;0.56;100.00
71105;BME280;58760;48.716;8.962;2024-03-08T04:03:35;96206.28;;;0.54;100.00
71105;BME280;58760;48.716;8.962;2024-03-08T04:06:05;96209.13;;;0.62;100.00
71105;BME280;58760;48.716;8.962;2024-03-08T04:08:31;96206.88;;;0.69;100.00
71105;BME280;58760;48.716;8.962;2024-03-08T04:11:00;96202.38;;;0.71;100.00
71105;BME280;58760;48.716;8.962;2024-03-08T04:13:25;96199.66;;;0.61;100.00
71105;BME280;58760;48.716;8.962;2024-03-08T04:15:51;96199.16;;;0.67;100.00
71105;BME280;58760;48.716;8.962;2024-03-08T04:18:17;96187.88;;;0.56;100.00
71105;BME280;58760;48.716;8.962;2024-03-08T04:20:43;96195.63;;;0.57;100.00
71105;BME280;58760;48.716;8.962;2024-03-08T04:23:08;96193.34;;;0.52;100.00
71105;BME280;58760;48.716;8.962;2024-03-08T04:25:34;96191.56;;;0.53;100.00
71105;BME280;58760;48.716;8.962;2024-03-08T04:28:00;96199.78;;;0.48;100.00
71105;BME280;58760;48.716;8.962;2024-03-08T04:30:25;96195.97;;;0.52;100.00
71105;BME280;58760;48.716;8.962;2024-03-08T04:32:53;96197.19;;;0.48;100.00
71105;BME280;58760;48.716;8.962;2024-03-08T04:35:19;96199.06;;;0.46;100.00
71105;BME280;58760;48.716;8.962;2024-03-08T04:37:46;96193.84;;;0.46;100.00
71105;BME280;58760;48.716;8.962;2024-03-08T04:40:11;96192.41;;;0.42;100.00
71105;BME280;58760;48.716;8.962;2024-03-08T04:42:39;96195.38;;;0.60;100.00
71105;BME280;58760;48.716;8.962;2024-03-08T04:45:06;96188.69;;;0.78;100.00
71105;BME280;58760;48.716;8.962;2024-03-08T04:47:35;96178.25;;;0.78;100.00
71105;BME280;58760;48.716;8.962;2024-03-08T04:50:04;96181.97;;;0.65;100.00
71105;BME280;58760;48.716;8.962;2024-03-08T04:52:30;96177.34;;;0.68;100.00
71105;BME280;58760;48.716;8.962;2024-03-08T04:54:59;96172.13;;;0.57;100.00
71105;BME280;58760;48.716;8.962;2024-03-08T04:57:27;96177.34;;;0.57;100.00
71105;BME280;58760;48.716;8.962;2024-03-08T04:59:53;96184.34;;;0.57;100.00
71105;BME280;58760;48.716;8.962;2024-03-08T05:02:18;96178.66;;;0.29;100.00
71105;BME280;58760;48.716;8.962;2024-03-08T05:04:46;96176.03;;;0.29;100.00
71105;BME280;58760;48.716;8.962;2024-03-08T05:07:11;96175.47;;;0.26;100.00
71105;BME280;58760;48.716;8.962;2024-03-08T05:09:37;96178.09;;;0.26;100.00
71105;BME280;58760;48.716;8.962;2024-03-08T05:12:03;96173.31;;;0.20;100.00
71105;BME280;58760;48.716;8.962;2024-03-08T05:14:29;96170.81;;;0.07;100.00
71105;BME280;58760;48.716;8.962;2024-03-08T05:16:55;96170.22;;;0.04;100.00
71105;BME280;58760;48.716;8.962;2024-03-08T05:19:20;96174.41;;;0.06;100.00
71105;BME280;58760;48.716;8.962;2024-03-08T05:21:47;96167.41;;;0.18;100.00
71105;BME280;58760;48.716;8.962;2024-03-08T05:24:13;96172.50;;;0.08;100.00
71105;BME280;58760;48.716;8.962;2024-03-08T05:26:40;96168.69;;;0.01;100.00
71105;BME280;58760;48.716;8.962;2024-03-08T05:29:07;96167.84;;;0.00;100.00
71105;BME280;58760;48.716;8.962;2024-03-08T05:34:11;96170.69;;;-0.25;100.00
71105;BME280;58760;48.716;8.962;2024-03-08T05:36:40;96173.06;;;-0.33;100.00
71105;BME280;58760;48.716;8.962;2024-03-08T05:39:06;96166.88;;;-0.32;100.00
71105;BME280;58760;48.716;8.962;2024-03-08T05:41:36;96166.25;;;-0.46;100.00
71105;BME280;58760;48.716;8.962;2024-03-08T05:44:02;96162.78;;;-0.58;100.00
71105;BME280;58760;48.716;8.962;2024-03-08T05:46:28;96165.75;;;-0.63;100.00
71105;BME280;58760;48.716;8.962;2024-03-08T05:48:53;96175.25;;;-0.50;100.00
71105;BME280;58760;48.716;8.962;2024-03-08T05:51:28;96159.94;;;-0.66;100.00
71105;BME280;58760;48.716;8.962;2024-03-08T05:53:54;96170.22;;;-0.65;100.00
71105;BME280;58760;48.716;8.962;2024-03-08T05:56:21;96165.16;;;-0.55;100.00
71105;BME280;58760;48.716;8.962;2024-03-08T05:58:50;96161.75;;;-0.44;100.00
71105;BME280;58760;48.716;8.962;2024-03-08T06:01:16;96166.34;;;-0.13;100.00
71105;BME280;58760;48.716;8.962;2024-03-08T06:03:41;96169.28;;;0.05;100.00
71105;BME280;58760;48.716;8.962;2024-03-08T06:06:14;96172.28;;;0.00;100.00
71105;BME280;58760;48.716;8.962;2024-03-08T06:08:39;96172.94;;;-0.09;100.00
71105;BME280;58760;48.716;8.962;2024-03-08T06:11:05;96173.56;;;-0.06;100.00
71105;BME280;58760;48.716;8.962;2024-03-08T06:13:32;96169.16;;;-0.16;100.00
71105;BME280;58760;48.716;8.962;2024-03-08T06:15:59;96168.34;;;-0.17;100.00
71105;BME280;58760;48.716;8.962;2024-03-08T06:18:26;96178.88;;;-0.18;100.00
71105;BME280;58760;48.716;8.962;2024-03-08T06:20:51;96174.00;;;-0.23;100.00
71105;BME280;58760;48.716;8.962;2024-03-08T06:23:18;96165.00;;;-0.19;100.00
71105;BME280;58760;48.716;8.962;2024-03-08T06:25:44;96162.75;;;-0.23;100.00
71105;BME280;58760;48.716;8.962;2024-03-08T06:28:10;96155.97;;;-0.26;100.00
71105;BME280;58760;48.716;8.962;2024-03-08T06:30:35;96156.47;;;-0.21;100.00
71105;BME280;58760;48.716;8.962;2024-03-08T06:33:01;96150.91;;;-0.16;100.00
71105;BME280;58760;48.716;8.962;2024-03-08T06:35:27;96153.03;;;-0.21;100.00
71105;BME280;58760;48.716;8.962;2024-03-08T06:37:52;96153.88;;;-0.21;100.00
71105;BME280;58760;48.716;8.962;2024-03-08T06:40:18;96162.78;;;-0.01;100.00
71105;BME280;58760;48.716;8.962;2024-03-08T06:42:43;96157.91;;;0.06;100.00
71105;BME280;58760;48.716;8.962;2024-03-08T06:45:09;96148.31;;;0.28;100.00
71105;BME280;58760;48.716;8.962;2024-03-08T06:47:36;96152.69;;;0.28;100.00
71105;BME280;58760;48.716;8.962;2024-03-08T06:50:02;96154.59;;;0.37;100.00
71105;BME280;58760;48.716;8.962;2024-03-08T06:52:29;96154.59;;;0.26;100.00
71105;BME280;58760;48.716;8.962;2024-03-08T06:54:54;96149.97;;;0.18;100.00
71105;BME280;58760;48.716;8.962;2024-03-08T06:57:20;96148.28;;;0.50;100.00
71105;BME280;58760;48.716;8.962;2024-03-08T06:59:49;96152.63;;;0.83;100.00
71105;BME280;58760;48.716;8.962;2024-03-08T07:02:14;96154.47;;;1.03;100.00
71105;BME280;58760;48.716;8.962;2024-03-08T07:04:40;96151.00;;;1.35;100.00
71105;BME280;58760;48.716;8.962;2024-03-08T07:07:06;96147.94;;;1.30;100.00
71105;BME280;58760;48.716;8.962;2024-03-08T07:09:38;96143.25;;;1.13;100.00
71105;BME280;58760;48.716;8.962;2024-03-08T07:12:03;96143.16;;;1.35;100.00
71105;BME280;58760;48.716;8.962;2024-03-08T07:14:29;96145.25;;;1.41;100.00
71105;BME280;58760;48.716;8.962;2024-03-08T07:16:56;96141.63;;;1.53;100.00
71105;BME280;58760;48.716;8.962;2024-03-08T07:19:22;96134.28;;;1.68;100.00
71105;BME280;58760;48.716;8.962;2024-03-08T07:21:48;96136.13;;;1.77;100.00
71105;BME280;58760;48.716;8.962;2024-03-08T07:24:14;96137.59;;;1.90;100.00
71105;BME280;58760;48.716;8.962;2024-03-08T07:26:39;96131.25;;;2.14;100.00
71105;BME280;58760;48.716;8.962;2024-03-08T07:29:05;96129.34;;;2.25;100.00
71105;BME280;58760;48.716;8.962;2024-03-08T07:31:31;96124.69;;;2.29;100.00
71105;BME280;58760;48.716;8.962;2024-03-08T07:34:20;96120.78;;;2.53;100.00
71105;BME280;58760;48.716;8.962;2024-03-08T07:36:46;96119.56;;;2.67;100.00
71105;BME280;58760;48.716;8.962;2024-03-08T07:39:11;96109.50;;;2.72;100.00
71105;BME280;58760;48.716;8.962;2024-03-08T07:41:40;96099.41;;;2.58;100.00
71105;BME280;58760;48.716;8.962;2024-03-08T07:44:06;96099.03;;;2.62;100.00
71105;BME280;58760;48.716;8.962;2024-03-08T07:46:32;96096.25;;;2.64;100.00
71105;BME280;58760;48.716;8.962;2024-03-08T07:48:59;96100.72;;;2.83;100.00
71105;BME280;58760;48.716;8.962;2024-03-08T07:51:25;96104.28;;;2.82;100.00
71105;BME280;58760;48.716;8.962;2024-03-08T07:53:50;96102.63;;;2.81;100.00
71105;BME280;58760;48.716;8.962;2024-03-08T07:56:16;96097.13;;;3.03;100.00
71105;BME280;58760;48.716;8.962;2024-03-08T07:58:44;96088.56;;;3.01;100.00
71105;BME280;58760;48.716;8.962;2024-03-08T08:01:19;96085.41;;;3.26;100.00
71105;BME280;58760;48.716;8.962;2024-03-08T08:03:45;96079.06;;;3.09;100.00
71105;BME280;58760;48.716;8.962;2024-03-08T08:06:11;96074.06;;;3.45;100.00
71105;BME280;58760;48.716;8.962;2024-03-08T08:08:44;96072.28;;;3.36;100.00
71105;BME280;58760;48.716;8.962;2024-03-08T08:11:10;96072.00;;;3.39;100.00
71105;BME280;58760;48.716;8.962;2024-03-08T08:13:41;96074.19;;;3.53;100.00
71105;BME280;58760;48.716;8.962;2024-03-08T08:16:09;96071.28;;;3.56;100.00
71105;BME280;58760;48.716;8.962;2024-03-08T08:18:34;96068.25;;;3.60;100.00
71105;BME280;58760;48.716;8.962;2024-03-08T08:21:09;96056.38;;;3.56;100.00
71105;BME280;58760;48.716;8.962;2024-03-08T08:23:36;96068.22;;;3.70;100.00
71105;BME280;58760;48.716;8.962;2024-03-08T08:26:01;96059.19;;;3.82;100.00
71105;BME280;58760;48.716;8.962;2024-03-08T08:28:30;96051.75;;;3.78;100.00
71105;BME280;58760;48.716;8.962;2024-03-08T08:30:56;96047.88;;;3.82;100.00
71105;BME280;58760;48.716;8.962;2024-03-08T08:33:22;96046.53;;;3.68;100.00
71105;BME280;58760;48.716;8.962;2024-03-08T08:35:51;96058.34;;;3.91;100.00
71105;BME280;58760;48.716;8.962;2024-03-08T08:38:19;96049.09;;;3.87;100.00
71105;BME280;58760;48.716;8.962;2024-03-08T08:40:45;96041.16;;;4.06;100.00
71105;BME280;58760;48.716;8.962;2024-03-08T08:43:14;96044.22;;;4.02;100.00
71105;BME280;58760;48.716;8.962;2024-03-08T08:45:40;96040.88;;;3.73;100.00
71105;BME280;58760;48.716;8.962;2024-03-08T08:48:06;96047.78;;;3.74;100.00
71105;BME280;58760;48.716;8.962;2024-03-08T08:50:34;96052.00;;;3.84;100.00
71105;BME280;58760;48.716;8.962;2024-03-08T08:52:59;96043.16;;;3.85;100.00
71105;BME280;58760;48.716;8.962;2024-03-08T08:55:25;96047.13;;;3.99;100.00
71105;BME280;58760;48.716;8.962;2024-03-08T08:57:51;96042.31;;;3.94;100.00
71105;BME280;58760;48.716;8.962;2024-03-08T09:00:20;96047.56;;;3.94;100.00
71105;BME280;58760;48.716;8.962;2024-03-08T09:02:47;96042.84;;;3.98;100.00
71105;BME280;58760;48.716;8.962;2024-03-08T09:05:13;96038.91;;;4.11;100.00
71105;BME280;58760;48.716;8.962;2024-03-08T09:07:45;96036.56;;;4.36;100.00
71105;BME280;58760;48.716;8.962;2024-03-08T09:10:19;96032.97;;;4.37;100.00
71105;BME280;58760;48.716;8.962;2024-03-08T09:12:45;96027.47;;;4.30;100.00
71105;BME280;58760;48.716;8.962;2024-03-08T09:15:11;96028.91;;;4.25;100.00
71105;BME280;58760;48.716;8.962;2024-03-08T09:17:40;96024.25;;;4.36;100.00
71105;BME280;58760;48.716;8.962;2024-03-08T09:20:07;96020.44;;;4.31;100.00
71105;BME280;58760;48.716;8.962;2024-03-08T09:22:34;96019.19;;;4.35;100.00
71105;BME280;58760;48.716;8.962;2024-03-08T09:25:00;96020.47;;;4.48;100.00
71105;BME280;58760;48.716;8.962;2024-03-08T09:27:27;96016.97;;;4.57;100.00
71105;BME280;58760;48.716;8.962;2024-03-08T09:29:53;96013.63;;;4.38;100.00
71105;BME280;58760;48.716;8.962;2024-03-08T09:32:18;96006.41;;;4.40;100.00
71105;BME280;58760;48.716;8.962;2024-03-08T09:34:44;96015.00;;;4.59;100.00
71105;BME280;58760;48.716;8.962;2024-03-08T09:37:10;96017.91;;;4.39;100.00
71105;BME280;58760;48.716;8.962;2024-03-08T09:39:35;96010.28;;;4.45;100.00
71105;BME280;58760;48.716;8.962;2024-03-08T09:42:01;96014.28;;;4.40;100.00
71105;BME280;58760;48.716;8.962;2024-03-08T09:44:27;96013.03;;;4.44;100.00
71105;BME280;58760;48.716;8.962;2024-03-08T09:47:00;96013.94;;;4.52;100.00
71105;BME280;58760;48.716;8.962;2024-03-08T09:49:27;96003.06;;;4.65;100.00
71105;BME280;58760;48.716;8.962;2024-03-08T09:51:54;95998.56;;;4.93;100.00
71105;BME280;58760;48.716;8.962;2024-03-08T09:54:21;95998.31;;;4.68;100.00
71105;BME280;58760;48.716;8.962;2024-03-08T09:56:48;95995.78;;;4.77;100.00
71105;BME280;58760;48.716;8.962;2024-03-08T09:59:15;95992.13;;;4.87;100.00
71105;BME280;58760;48.716;8.962;2024-03-08T10:01:46;95994.13;;;4.93;100.00
71105;BME280;58760;48.716;8.962;2024-03-08T10:04:12;95985.78;;;4.98;100.00
71105;BME280;58760;48.716;8.962;2024-03-08T10:06:39;95987.34;;;5.08;100.00
71105;BME280;58760;48.716;8.962;2024-03-08T10:09:05;95980.59;;;4.88;100.00
71105;BME280;58760;48.716;8.962;2024-03-08T10:11:33;95987.06;;;4.76;100.00
71105;BME280;58760;48.716;8.962;2024-03-08T10:13:59;95977.22;;;4.78;100.00
71105;BME280;58760;48.716;8.962;2024-03-08T10:16:27;95972.84;;;5.04;100.00
71105;BME280;58760;48.716;8.962;2024-03-08T10:18:52;95975.66;;;5.03;100.00
71105;BME280;58760;48.716;8.962;2024-03-08T10:21:19;95973.69;;;5.05;100.00
71105;BME280;58760;48.716;8.962;2024-03-08T10:23:44;95967.25;;;5.25;100.00
71105;BME280;58760;48.716;8.962;2024-03-08T10:26:13;95960.31;;;5.16;100.00
71105;BME280;58760;48.716;8.962;2024-03-08T10:28:44;95964.69;;;5.33;100.00
71105;BME280;58760;48.716;8.962;2024-03-08T10:31:10;95960.25;;;5.34;100.00
71105;BME280;58760;48.716;8.962;2024-03-08T10:33:35;95959.47;;;5.15;100.00
71105;BME280;58760;48.716;8.962;2024-03-08T10:36:03;95955.56;;;5.19;100.00
71105;BME280;58760;48.716;8.962;2024-03-08T10:38:31;95958.41;;;5.26;100.00
71105;BME280;58760;48.716;8.962;2024-03-08T10:41:01;95953.25;;;5.42;100.00
71105;BME280;58760;48.716;8.962;2024-03-08T10:43:28;95954.97;;;5.34;100.00
71105;BME280;58760;48.716;8.962;2024-03-08T10:46:11;95951.38;;;5.35;100.00
71105;BME280;58760;48.716;8.962;2024-03-08T10:48:45;95944.94;;;5.63;100.00
71105;BME280;58760;48.716;8.962;2024-03-08T10:51:15;95939.53;;;5.64;100.00
71105;BME280;58760;48.716;8.962;2024-03-08T10:53:41;95932.16;;;6.02;100.00
71105;BME280;58760;48.716;8.962;2024-03-08T10:56:07;95939.16;;;5.85;100.00
71105;BME280;58760;48.716;8.962;2024-03-08T10:58:35;95933.66;;;6.12;100.00
71105;BME280;58760;48.716;8.962;2024-03-08T11:01:02;95934.66;;;6.11;100.00
71105;BME280;58760;48.716;8.962;2024-03-08T11:06:08;95924.66;;;6.31;100.00
71105;BME280;58760;48.716;8.962;2024-03-08T11:08:37;95917.63;;;6.64;100.00
71105;BME280;58760;48.716;8.962;2024-03-08T11:11:05;95917.13;;;6.76;100.00
71105;BME280;58760;48.716;8.962;2024-03-08T11:13:36;95922.09;;;7.12;100.00
71105;BME280;58760;48.716;8.962;2024-03-08T11:16:12;95908.88;;;7.28;100.00
71105;BME280;58760;48.716;8.962;2024-03-08T11:21:36;95905.09;;;6.90;100.00
71105;BME280;58760;48.716;8.962;2024-03-08T11:24:14;95905.25;;;7.21;100.00
71105;BME280;58760;48.716;8.962;2024-03-08T11:26:42;95905.91;;;7.31;100.00
71105;BME280;58760;48.716;8.962;2024-03-08T11:32:17;95895.16;;;7.32;100.00
71105;BME280;58760;48.716;8.962;2024-03-08T11:34:48;95893.25;;;7.73;100.00
71105;BME280;58760;48.716;8.962;2024-03-08T11:37:19;95879.03;;;7.74;100.00
71105;BME280;58760;48.716;8.962;2024-03-08T11:39:50;95873.09;;;8.03;100.00
71105;BME280;58760;48.716;8.962;2024-03-08T11:42:19;95868.66;;;8.04;100.00
71105;BME280;58760;48.716;8.962;2024-03-08T11:44:45;95859.75;;;8.27;100.00
71105;BME280;58760;48.716;8.962;2024-03-08T11:47:20;95863.31;;;7.81;100.00
71105;BME280;58760;48.716;8.962;2024-03-08T11:49:46;95858.94;;;8.27;100.00
71105;BME280;58760;48.716;8.962;2024-03-08T11:52:15;95853.91;;;8.63;100.00
71105;BME280;58760;48.716;8.962;2024-03-08T11:54:41;95836.25;;;9.15;100.00
71105;BME280;58760;48.716;8.962;2024-03-08T11:57:07;95833.34;;;9.25;100.00
71105;BME280;58760;48.716;8.962;2024-03-08T11:59:35;95826.81;;;9.86;100.00
71105;BME280;58760;48.716;8.962;2024-03-08T12:02:03;95815.34;;;10.57;100.00
71105;BME280;58760;48.716;8.962;2024-03-08T12:04:30;95813.38;;;11.77;100.00
71105;BME280;58760;48.716;8.962;2024-03-08T12:06:59;95798.41;;;12.36;100.00
71105;BME280;58760;48.716;8.962;2024-03-08T12:09:28;95794.59;;;11.85;100.00
71105;BME280;58760;48.716;8.962;2024-03-08T12:11:58;95781.22;;;12.45;100.00
71105;BME280;58760;48.716;8.962;2024-03-08T12:14:24;95784.09;;;12.37;100.00
71105;BME280;58760;48.716;8.962;2024-03-08T12:16:51;95779.06;;;11.95;100.00
71105;BME280;58760;48.716;8.962;2024-03-08T12:19:16;95771.66;;;11.84;100.00
71105;BME280;58760;48.716;8.962;2024-03-08T12:21:42;95765.47;;;12.31;100.00
71105;BME280;58760;48.716;8.962;2024-03-08T12:24:15;95768.31;;;12.42;100.00
71105;BME280;58760;48.716;8.962;2024-03-08T12:26:50;95762.31;;;13.58;100.00
71105;BME280;58760;48.716;8.962;2024-03-08T12:29:25;95758.09;;;13.25;100.00
71105;BME280;58760;48.716;8.962;2024-03-08T12:31:58;95765.19;;;13.50;100.00
71105;BME280;58760;48.716;8.962;2024-03-08T12:34:26;95743.91;;;13.95;100.00
71105;BME280;58760;48.716;8.962;2024-03-08T12:36:55;95749.50;;;13.80;100.00
71105;BME280;58760;48.716;8.962;2024-03-08T12:42:58;95733.09;;;13.32;100.00
71105;BME280;58760;48.716;8.962;2024-03-08T12:45:24;95734.47;;;14.37;100.00
71105;BME280;58760;48.716;8.962;2024-03-08T12:47:51;95725.53;;;14.74;100.00
71105;BME280;58760;48.716;8.962;2024-03-08T12:50:24;95727.94;;;15.25;100.00
71105;BME280;58760;48.716;8.962;2024-03-08T12:52:58;95712.44;;;16.18;100.00
71105;BME280;58760;48.716;8.962;2024-03-08T12:55:26;95705.41;;;17.00;100.00
71105;BME280;58760;48.716;8.962;2024-03-08T12:57:52;95697.31;;;15.94;100.00
71105;BME280;58760;48.716;8.962;2024-03-08T13:00:18;95694.78;;;17.16;100.00
71105;BME280;58760;48.716;8.962;2024-03-08T13:02:52;95693.81;;;17.46;100.00
71105;BME280;58760;48.716;8.962;2024-03-08T13:05:20;95683.09;;;17.46;100.00
71105;BME280;58760;48.716;8.962;2024-03-08T13:07:51;95679.91;;;18.28;100.00
71105;BME280;58760;48.716;8.962;2024-03-08T13:10:25;95685.16;;;18.07;100.00
71105;BME280;58760;48.716;8.962;2024-03-08T13:12:51;95672.47;;;18.19;100.00
71105;BME280;58760;48.716;8.962;2024-03-08T13:15:18;95666.19;;;18.92;94.54